createdAt,value
2019-02-25T07:21:05.294Z,25.08
2019-02-25T07:23:57.789Z,22.98
2019-02-25T07:26:58.780Z,31.50
2019-02-25T07:29:33.989Z,29.57
2019-02-25T07:44:02.171Z,35.60
2019-02-25T07:50:00.326Z,36.13
2019-02-25T07:52:35.266Z,28.60
2019-02-25T07:55:13.293Z,35.70
2019-02-25T08:06:33.514Z,37.95
2019-02-25T08:09:23.189Z,30.12
2019-02-25T08:12:04.675Z,40.70
2019-02-25T08:23:20.143Z,32.03
2019-02-25T08:26:32.586Z,23.07
2019-02-25T08:32:40.612Z,31.33
2019-02-25T08:41:34.308Z,26.55
2019-02-25T08:47:28.899Z,28.07
2019-02-25T08:50:05.940Z,28.10
2019-02-25T08:52:48.563Z,27.90
2019-02-25T08:55:23.605Z,30.88
2019-02-25T08:57:53.873Z,25.80
2019-02-25T09:00:27.583Z,31.02
2019-02-25T09:02:58.165Z,27.45
2019-02-25T09:05:38.383Z,27.67
2019-02-25T09:10:49.907Z,27.02
2019-02-25T09:13:41.069Z,29.30
2019-02-25T09:16:30.542Z,22.75
2019-02-25T09:24:27.648Z,32.00
2019-02-25T09:27:02.298Z,26.42
2019-02-25T09:29:36.529Z,28.90
2019-02-25T09:32:07.742Z,26.87
2019-02-25T09:40:13.663Z,24.30
2019-02-25T09:48:13.205Z,28.38
2019-02-25T09:50:55.285Z,31.85
2019-02-25T10:02:06.135Z,30.65
2019-02-25T10:04:41.383Z,29.40
2019-02-25T10:07:13.640Z,26.75
2019-02-25T10:20:47.043Z,37.78
2019-02-25T10:26:15.160Z,32.93
2019-02-25T10:29:06.585Z,35.30
2019-02-25T10:41:03.384Z,47.13
2019-02-25T10:46:17.683Z,29.10
2019-02-25T11:07:20.489Z,53.42
2019-02-25T11:10:13.906Z,53.58
2019-02-25T11:12:28.424Z,37.83
2019-02-25T11:20:31.297Z,42.48
2019-02-25T11:23:04.757Z,44.10
2019-02-25T11:25:49.090Z,56.80
2019-02-25T11:28:25.115Z,59.98
2019-02-25T11:34:18.948Z,47.78
2019-02-25T11:36:59.564Z,46.02
2019-02-25T11:42:27.608Z,48.85
2019-02-25T11:45:05.214Z,53.10
2019-02-25T11:47:43.948Z,35.80
2019-02-25T11:56:13.867Z,36.50
2019-02-25T11:58:56.125Z,27.73
2019-02-25T12:01:28.194Z,31.73
2019-02-25T12:03:58.732Z,42.05
2019-02-25T12:09:27.658Z,32.73
2019-02-25T12:11:58.567Z,26.75
2019-02-25T12:14:33.259Z,34.65
2019-02-25T12:17:07.113Z,36.90
2019-02-25T12:22:08.941Z,47.17
2019-02-25T12:27:19.948Z,34.88
2019-02-25T12:29:50.453Z,37.30
2019-02-25T12:32:20.987Z,36.20
2019-02-25T12:34:51.409Z,30.12
2019-02-25T12:37:41.013Z,29.30
2019-02-25T12:40:11.541Z,32.15
2019-02-25T12:42:41.897Z,27.20
2019-02-25T12:45:12.325Z,34.23
2019-02-25T12:47:42.886Z,31.02
2019-02-25T12:50:13.441Z,36.60
2019-02-25T12:52:44.129Z,31.35
2019-02-25T12:55:14.625Z,27.75
2019-02-25T12:57:45.105Z,28.87
2019-02-25T13:00:15.974Z,23.87
2019-02-25T13:02:49.532Z,30.55
2019-02-25T13:05:20.370Z,23.85
2019-02-25T13:07:51.286Z,40.00
2019-02-25T13:13:49.905Z,34.50
2019-02-25T13:16:20.944Z,28.80
2019-02-25T13:18:51.545Z,39.30
2019-02-25T13:21:21.947Z,30.88
2019-02-25T13:23:52.544Z,34.67
2019-02-25T13:26:23.106Z,39.33
2019-02-25T13:28:55.446Z,34.33
2019-02-25T13:31:51.017Z,32.30
2019-02-25T13:37:08.281Z,30.57
2019-02-25T13:42:19.311Z,29.95
2019-02-25T13:44:46.999Z,36.65
2019-02-25T13:47:17.624Z,47.23
2019-02-25T13:49:51.989Z,39.45
2019-02-25T13:52:30.078Z,35.78
2019-02-25T13:55:00.591Z,35.40
2019-02-25T13:57:32.619Z,31.27
2019-02-25T14:00:05.428Z,40.12
2019-02-25T14:02:39.159Z,42.53
2019-02-25T14:05:22.242Z,38.40
2019-02-25T14:08:10.253Z,42.65
2019-02-25T14:10:41.664Z,40.03
2019-02-25T14:13:12.904Z,42.83
2019-02-25T14:15:43.534Z,35.35
2019-02-25T14:18:14.198Z,43.52
2019-02-25T14:20:45.386Z,30.10
2019-02-25T14:23:18.452Z,27.60
2019-02-25T14:25:48.762Z,39.58
2019-02-25T14:28:19.941Z,36.17
2019-02-25T14:30:51.634Z,32.60
2019-02-25T14:33:23.586Z,33.30
2019-02-25T14:35:55.072Z,32.08
2019-02-25T14:38:27.677Z,29.70
2019-02-25T14:40:58.156Z,30.52
2019-02-25T14:43:28.837Z,29.15
2019-02-25T14:46:01.459Z,34.92
2019-02-25T14:48:32.843Z,34.18
2019-02-25T14:51:03.509Z,32.25
2019-02-25T14:53:47.432Z,28.17
2019-02-25T14:56:19.402Z,31.15
2019-02-25T14:58:50.521Z,38.90
2019-02-25T15:01:25.691Z,40.17
2019-02-25T15:04:17.111Z,29.57
2019-02-25T15:06:48.257Z,31.57
2019-02-25T15:09:21.313Z,31.07
2019-02-25T15:11:55.557Z,34.18
2019-02-25T15:14:26.865Z,35.55
2019-02-25T15:16:57.206Z,30.17
2019-02-25T15:19:29.630Z,35.88
2019-02-25T15:22:00.882Z,31.48
2019-02-25T15:24:31.329Z,33.40
2019-02-25T15:27:04.348Z,35.48
2019-02-25T15:32:05.054Z,35.85
2019-02-25T15:34:38.449Z,32.55
2019-02-25T15:37:09.521Z,31.20
2019-02-25T15:39:42.412Z,33.88
2019-02-25T15:42:14.663Z,30.15
2019-02-25T15:44:47.231Z,39.23
2019-02-25T15:47:17.308Z,31.52
2019-02-25T15:49:49.682Z,29.95
2019-02-25T15:52:21.056Z,32.23
2019-02-25T15:54:55.070Z,31.80
2019-02-25T15:57:26.475Z,36.70
2019-02-25T15:59:57.482Z,32.85
2019-02-25T16:02:27.863Z,32.15
2019-02-25T16:04:59.444Z,31.87
2019-02-25T16:07:31.727Z,29.45
2019-02-25T16:10:05.010Z,31.68
2019-02-25T16:12:36.098Z,30.92
2019-02-25T16:15:11.515Z,32.23
2019-02-25T16:17:43.660Z,31.30
2019-02-25T16:20:17.519Z,37.45
2019-02-25T16:22:47.541Z,33.45
2019-02-25T16:25:18.140Z,27.45
2019-02-25T16:27:50.497Z,33.28
2019-02-25T16:30:21.485Z,31.00
2019-02-25T16:32:52.593Z,31.10
2019-02-25T16:35:22.898Z,36.03
2019-02-25T16:37:55.225Z,29.87
2019-02-25T16:40:28.443Z,31.73
2019-02-25T16:42:59.634Z,33.75
2019-02-25T16:45:34.790Z,31.52
2019-02-25T16:48:01.710Z,34.23
2019-02-25T16:50:32.079Z,33.95
2019-02-25T16:53:05.911Z,30.85
2019-02-25T16:55:34.478Z,31.33
2019-02-25T16:58:06.919Z,30.85
2019-02-25T17:00:37.716Z,31.60
2019-02-25T17:03:10.646Z,33.75
2019-02-25T17:05:42.860Z,33.75
2019-02-25T17:08:15.095Z,31.68
2019-02-25T17:10:45.614Z,34.92
2019-02-25T17:13:17.053Z,31.07
2019-02-25T17:15:47.621Z,34.00
2019-02-25T17:18:17.986Z,36.38
2019-02-25T17:20:50.306Z,30.30
2019-02-25T17:23:22.782Z,34.60
2019-02-25T17:25:52.629Z,34.58
2019-02-25T17:28:24.893Z,30.30
2019-02-25T17:30:55.129Z,33.48
2019-02-25T17:33:26.200Z,41.90
2019-02-25T17:35:57.541Z,44.35
2019-02-25T17:38:28.978Z,43.92
2019-02-25T17:41:01.279Z,44.53
2019-02-25T17:43:33.738Z,40.03
2019-02-25T17:46:05.208Z,40.50
2019-02-25T17:48:35.921Z,42.50
2019-02-25T17:51:06.377Z,40.63
2019-02-25T17:53:36.890Z,41.48
2019-02-25T17:56:08.433Z,42.05
2019-02-25T17:58:40.380Z,42.25
2019-02-25T18:01:11.218Z,40.55
2019-02-25T18:03:43.419Z,38.33
2019-02-25T18:06:13.728Z,43.00
2019-02-25T18:08:44.144Z,42.27
2019-02-25T18:11:15.815Z,39.53
2019-02-25T18:13:47.242Z,41.75
2019-02-25T18:16:19.085Z,39.42
2019-02-25T18:18:50.766Z,42.15
2019-02-25T18:21:20.193Z,46.83
2019-02-25T18:23:52.050Z,42.48
2019-02-25T18:26:22.992Z,55.20
2019-02-25T18:28:53.420Z,48.02
2019-02-25T18:31:24.308Z,40.33
2019-02-25T18:33:54.794Z,38.58
2019-02-25T18:36:27.200Z,40.48
2019-02-25T18:38:58.287Z,36.65
2019-02-25T18:41:33.634Z,43.08
2019-02-25T18:44:00.890Z,54.38
2019-02-25T18:46:31.424Z,38.55
2019-02-25T18:49:03.101Z,38.83
2019-02-25T18:51:35.822Z,42.00
2019-02-25T18:54:06.293Z,36.75
2019-02-25T18:56:38.198Z,40.73
2019-02-25T18:59:13.032Z,39.00
2019-02-25T19:01:40.687Z,39.83
2019-02-25T19:04:11.611Z,39.08
2019-02-25T19:06:43.581Z,40.80
2019-02-25T19:09:21.196Z,38.45
2019-02-25T19:11:53.313Z,40.43
2019-02-25T19:14:24.191Z,37.45
2019-02-25T19:16:57.687Z,41.10
2019-02-25T19:19:31.365Z,34.03
2019-02-25T19:22:01.558Z,33.55
2019-02-25T19:24:33.574Z,34.83
2019-02-25T19:27:04.860Z,34.35
2019-02-25T19:29:36.418Z,36.55
2019-02-25T19:32:06.738Z,33.02
2019-02-25T19:34:39.221Z,36.00
2019-02-25T19:37:10.359Z,37.75
2019-02-25T19:39:42.088Z,31.73
2019-02-25T19:42:15.585Z,37.03
2019-02-25T19:44:45.381Z,33.48
2019-02-25T19:47:16.805Z,35.52
2019-02-25T19:49:47.951Z,36.40
2019-02-25T19:52:18.566Z,38.08
2019-02-25T19:54:50.720Z,31.80
2019-02-25T19:57:23.556Z,31.48
2019-02-25T19:59:55.397Z,34.43
2019-02-25T20:02:27.218Z,32.58
2019-02-25T20:04:57.755Z,31.23
2019-02-25T20:07:29.178Z,32.95
2019-02-25T20:10:00.288Z,36.08
2019-02-25T20:12:30.764Z,33.02
2019-02-25T20:15:01.275Z,27.73
2019-02-25T20:17:33.374Z,35.45
2019-02-25T20:20:04.943Z,32.73
2019-02-25T20:22:38.622Z,29.72
2019-02-25T20:25:10.822Z,30.52
2019-02-25T20:27:41.182Z,32.00
2019-02-25T20:30:13.535Z,30.68
2019-02-25T20:32:44.032Z,31.17
2019-02-25T20:35:15.708Z,32.40
2019-02-25T20:37:51.047Z,29.67
2019-02-25T20:40:21.373Z,33.08
2019-02-25T20:42:53.401Z,34.18
2019-02-25T20:45:25.107Z,27.25
2019-02-25T20:47:57.213Z,29.30
2019-02-25T20:50:27.656Z,28.02
2019-02-25T20:52:59.170Z,30.43
2019-02-25T20:55:31.601Z,31.42
2019-02-25T20:58:02.512Z,30.02
2019-02-25T21:00:35.108Z,33.63
2019-02-25T21:03:04.898Z,31.27
2019-02-25T21:05:35.224Z,29.30
2019-02-25T21:08:05.688Z,31.87
2019-02-25T21:10:36.176Z,30.97
2019-02-25T21:13:06.566Z,30.15
2019-02-25T21:15:38.445Z,29.30
2019-02-25T21:18:09.226Z,29.95
2019-02-25T21:20:39.570Z,29.32
2019-02-25T21:23:12.063Z,31.52
2019-02-25T21:25:44.082Z,32.45
2019-02-25T21:28:13.916Z,30.25
2019-02-25T21:30:46.081Z,28.40
2019-02-25T21:33:17.997Z,30.55
2019-02-25T21:35:48.260Z,30.10
2019-02-25T21:38:19.535Z,29.37
2019-02-25T21:40:52.525Z,27.42
2019-02-25T21:43:24.106Z,27.45
2019-02-25T21:45:56.466Z,27.77
2019-02-25T21:48:27.540Z,30.23
2019-02-25T21:51:02.316Z,28.25
2019-02-25T21:53:31.902Z,28.20
2019-02-25T21:56:04.824Z,28.92
2019-02-25T21:58:34.533Z,29.25
2019-02-25T22:01:04.996Z,32.65
2019-02-25T22:03:39.481Z,32.38
2019-02-25T22:06:07.556Z,28.05
2019-02-25T22:08:38.047Z,32.40
2019-02-25T22:11:14.441Z,30.68
2019-02-25T22:13:41.511Z,27.32
2019-02-25T22:16:12.132Z,30.20
2019-02-25T22:18:42.603Z,29.42
2019-02-25T22:21:16.610Z,33.70
2019-02-25T22:23:49.479Z,31.80
2019-02-25T22:26:20.239Z,30.17
2019-02-25T22:28:52.715Z,33.45
2019-02-25T22:31:22.729Z,26.45
2019-02-25T22:33:53.186Z,30.17
2019-02-25T22:36:23.658Z,31.82
2019-02-25T22:38:56.576Z,32.88
2019-02-25T22:41:27.153Z,30.75
2019-02-25T22:43:57.615Z,33.53
2019-02-25T22:46:29.928Z,29.35
2019-02-25T22:49:00.940Z,29.92
2019-02-25T22:51:33.211Z,28.55
2019-02-25T22:54:06.278Z,34.23
2019-02-25T22:56:36.010Z,31.50
2019-02-25T22:59:06.337Z,29.18
2019-02-25T23:01:37.412Z,30.72
2019-02-25T23:04:11.115Z,28.32
2019-02-25T23:06:43.910Z,30.90
2019-02-25T23:09:14.089Z,29.45
2019-02-25T23:11:45.930Z,27.58
2019-02-25T23:14:17.936Z,29.92
2019-02-25T23:16:48.065Z,30.17
2019-02-25T23:19:20.131Z,29.12
2019-02-25T23:21:50.453Z,27.85
2019-02-25T23:24:21.760Z,32.48
2019-02-25T23:26:53.036Z,32.53
2019-02-25T23:29:26.665Z,30.48
2019-02-25T23:31:56.203Z,29.90
2019-02-25T23:34:26.667Z,32.17
2019-02-25T23:36:56.968Z,31.57
2019-02-25T23:39:27.318Z,32.23
2019-02-25T23:41:57.646Z,29.60
2019-02-25T23:44:28.047Z,33.15
2019-02-25T23:47:00.190Z,28.35
2019-02-25T23:49:30.625Z,31.05
2019-02-25T23:52:01.055Z,32.95
2019-02-25T23:54:31.476Z,32.73
2019-02-25T23:57:02.081Z,29.15
2019-02-25T23:59:32.504Z,31.90
